createdAt,value
2022-12-16T00:02:06.788Z,14.00
2022-12-16T00:04:33.793Z,19.00
2022-12-16T00:07:00.762Z,20.00
2022-12-16T00:09:27.695Z,22.33
2022-12-16T00:11:54.763Z,24.33
2022-12-16T00:14:21.685Z,30.00
2022-12-16T00:16:48.656Z,22.67
2022-12-16T00:19:15.598Z,20.33
2022-12-16T00:21:42.588Z,28.75
2022-12-16T00:24:09.477Z,29.00
2022-12-16T00:26:36.414Z,28.50
2022-12-16T00:29:05.684Z,24.33
2022-12-16T00:31:32.949Z,14.67
2022-12-16T00:34:00.079Z,16.33
2022-12-16T00:36:26.943Z,20.67
2022-12-16T00:38:53.920Z,17.00
2022-12-16T00:41:21.004Z,33.25
2022-12-16T00:43:48.376Z,33.25
2022-12-16T00:46:15.391Z,26.00
2022-12-16T00:48:42.381Z,23.00
2022-12-16T00:51:09.517Z,22.00
2022-12-16T00:53:36.618Z,21.33
2022-12-16T00:56:06.861Z,23.00
2022-12-16T00:58:33.817Z,29.00
2022-12-16T01:01:01.251Z,23.67
2022-12-16T01:03:28.796Z,22.00
2022-12-16T01:05:55.834Z,20.00
2022-12-16T01:08:23.008Z,20.33
2022-12-16T01:10:55.450Z,21.33
2022-12-16T01:13:24.852Z,18.67
2022-12-16T01:15:52.480Z,21.33
2022-12-16T01:18:19.880Z,19.33
2022-12-16T01:20:46.835Z,15.67
2022-12-16T01:23:13.746Z,16.00
2022-12-16T01:25:40.759Z,14.00
2022-12-16T01:28:07.723Z,16.00
2022-12-16T01:30:35.610Z,7.00
2022-12-16T01:33:02.582Z,19.67
2022-12-16T01:35:54.705Z,11.67
2022-12-16T01:38:16.547Z,13.67
2022-12-16T01:40:43.469Z,14.00
2022-12-16T01:43:14.711Z,14.33
2022-12-16T01:45:41.771Z,13.00
2022-12-16T01:48:34.464Z,8.00
2022-12-16T01:51:07.852Z,13.67
2022-12-16T01:53:39.202Z,7.33
2022-12-16T01:56:06.565Z,13.33
2022-12-16T01:58:38.082Z,15.33
2022-12-16T02:01:05.632Z,13.00
2022-12-16T02:03:36.643Z,19.00
2022-12-16T02:06:22.683Z,20.00
2022-12-16T02:09:23.105Z,16.67
2022-12-16T02:12:43.115Z,15.00
2022-12-16T02:15:50.758Z,13.33
2022-12-16T02:18:56.414Z,13.33
2022-12-16T02:22:01.225Z,17.33
2022-12-16T02:25:27.162Z,16.33
2022-12-16T02:28:19.015Z,16.67
2022-12-16T02:30:57.656Z,22.00
2022-12-16T02:33:39.776Z,21.67
2022-12-16T02:36:30.583Z,22.00
2022-12-16T02:39:02.469Z,0.00
2022-12-16T02:41:44.092Z,19.00
2022-12-16T02:44:12.612Z,17.00
2022-12-16T02:46:51.463Z,17.67
2022-12-16T02:49:21.773Z,14.33
2022-12-16T02:51:49.803Z,20.00
2022-12-16T02:54:18.257Z,20.00
2022-12-16T02:56:54.192Z,20.00
2022-12-16T02:59:36.981Z,22.00
2022-12-16T03:02:17.845Z,22.67
2022-12-16T03:04:55.322Z,23.00
2022-12-16T03:07:26.911Z,17.67
2022-12-16T03:09:55.823Z,19.00
2022-12-16T03:12:24.275Z,19.00
2022-12-16T03:14:53.800Z,19.67
2022-12-16T03:17:24.657Z,17.00
2022-12-16T03:20:17.843Z,16.00
2022-12-16T03:22:48.605Z,16.00
2022-12-16T03:25:16.613Z,16.00
2022-12-16T03:28:00.641Z,12.33
2022-12-16T03:30:35.267Z,13.67
2022-12-16T03:33:09.850Z,14.33
2022-12-16T03:35:42.790Z,13.67
2022-12-16T03:38:12.599Z,15.33
2022-12-16T03:40:42.883Z,16.00
2022-12-16T03:43:15.088Z,19.00
2022-12-16T03:45:46.011Z,17.00
2022-12-16T03:48:14.198Z,22.00
2022-12-16T03:50:41.327Z,22.67
2022-12-16T03:53:08.565Z,19.00
2022-12-16T03:55:35.662Z,17.67
2022-12-16T03:58:02.597Z,17.33
2022-12-16T04:00:30.223Z,18.67
2022-12-16T04:02:57.554Z,16.33
2022-12-16T04:05:24.846Z,14.00
2022-12-16T04:07:51.794Z,14.00
2022-12-16T04:10:38.892Z,11.00
2022-12-16T04:13:24.503Z,12.67
2022-12-16T04:16:10.262Z,15.67
2022-12-16T04:18:56.202Z,16.33
2022-12-16T04:21:41.948Z,12.33
2022-12-16T04:24:21.740Z,14.33
2022-12-16T04:27:11.922Z,10.00
2022-12-16T04:30:00.354Z,10.00
2022-12-16T04:32:27.311Z,10.33
2022-12-16T04:34:54.233Z,9.33
2022-12-16T04:37:39.591Z,11.67
2022-12-16T04:40:25.759Z,8.00
2022-12-16T04:43:11.289Z,8.33
2022-12-16T04:45:58.135Z,7.00
2022-12-16T04:48:44.025Z,8.33
2022-12-16T04:51:29.576Z,10.33
2022-12-16T04:54:14.903Z,11.00
2022-12-16T04:57:00.192Z,10.00
2022-12-16T04:59:45.578Z,7.00
2022-12-16T05:02:31.123Z,2.33
2022-12-16T05:05:16.641Z,5.67
2022-12-16T05:08:02.182Z,4.33
2022-12-16T05:10:47.456Z,2.00
2022-12-16T05:13:33.243Z,4.33
2022-12-16T05:16:18.986Z,2.00
2022-12-16T05:19:04.746Z,4.00
2022-12-16T05:21:50.436Z,4.00
2022-12-16T05:24:38.032Z,5.00
2022-12-16T05:27:23.462Z,5.00
2022-12-16T05:30:08.940Z,5.00
2022-12-16T05:32:54.360Z,4.00
2022-12-16T05:35:41.077Z,7.67
2022-12-16T05:38:26.582Z,7.00
2022-12-16T05:41:11.986Z,5.67
2022-12-16T05:43:57.663Z,7.00
2022-12-16T05:46:43.110Z,4.00
2022-12-16T05:49:28.891Z,4.00
2022-12-16T05:52:14.492Z,5.67
2022-12-16T05:55:00.106Z,4.33
2022-12-16T05:57:45.670Z,5.00
2022-12-16T06:00:31.763Z,4.00
2022-12-16T06:03:17.617Z,7.33
2022-12-16T06:06:02.995Z,6.33
2022-12-16T06:08:48.323Z,8.67
2022-12-16T06:11:33.806Z,7.33
2022-12-16T06:14:18.996Z,5.67
2022-12-16T06:17:04.391Z,6.33
2022-12-16T06:19:49.604Z,7.00
2022-12-16T06:22:35.019Z,5.67
2022-12-16T06:25:20.451Z,10.00
2022-12-16T06:28:12.784Z,8.00
2022-12-16T06:30:58.163Z,8.67
2022-12-16T06:33:57.492Z,14.00
2022-12-16T06:36:43.050Z,9.33
2022-12-16T06:39:28.455Z,11.00
2022-12-16T06:42:13.801Z,10.00
2022-12-16T06:44:59.385Z,7.00
2022-12-16T06:47:44.867Z,7.00
2022-12-16T06:50:30.159Z,7.00
2022-12-16T06:53:15.750Z,5.00
2022-12-16T06:56:01.220Z,8.00
2022-12-16T06:58:46.490Z,5.00
2022-12-16T07:01:32.034Z,7.67
2022-12-16T07:04:17.475Z,8.67
2022-12-16T07:07:02.945Z,5.67
2022-12-16T07:09:48.537Z,4.00
2022-12-16T07:12:34.213Z,5.00
2022-12-16T07:15:19.661Z,7.00
2022-12-16T07:18:04.930Z,6.33
2022-12-16T07:20:50.638Z,7.00
2022-12-16T07:23:36.373Z,10.00
2022-12-16T07:26:21.942Z,10.00
2022-12-16T07:29:07.574Z,11.00
2022-12-16T07:31:53.234Z,11.00
2022-12-16T07:34:42.853Z,7.33
2022-12-16T07:37:30.200Z,12.67
2022-12-16T07:40:15.489Z,11.67
2022-12-16T07:43:01.945Z,8.00
2022-12-16T07:45:47.652Z,5.67
2022-12-16T07:48:32.955Z,8.00
2022-12-16T07:51:18.402Z,7.67
2022-12-16T07:54:03.684Z,10.00
2022-12-16T07:56:50.395Z,7.00
2022-12-16T07:59:36.061Z,10.33
2022-12-16T08:02:21.619Z,8.33
2022-12-16T08:05:07.210Z,11.00
2022-12-16T08:07:52.647Z,8.00
2022-12-16T08:10:38.279Z,7.00
2022-12-16T08:13:26.029Z,7.67
2022-12-16T08:16:11.367Z,4.33
2022-12-16T08:18:57.129Z,7.00
2022-12-16T08:21:42.371Z,5.00
2022-12-16T08:24:27.853Z,7.00
2022-12-16T08:27:13.421Z,4.67
2022-12-16T08:29:58.986Z,5.67
2022-12-16T08:32:44.566Z,7.00
2022-12-16T08:35:29.966Z,4.00
2022-12-16T08:38:16.064Z,5.00
2022-12-16T08:41:02.787Z,5.00
2022-12-16T08:43:52.924Z,6.33
2022-12-16T08:46:39.189Z,5.00
2022-12-16T08:49:25.127Z,6.33
2022-12-16T08:52:10.734Z,10.00
2022-12-16T08:54:56.104Z,7.00
2022-12-16T08:57:42.151Z,10.67
2022-12-16T09:00:28.488Z,10.67
2022-12-16T09:03:16.001Z,7.00
2022-12-16T09:06:02.187Z,6.33
2022-12-16T09:08:47.765Z,5.00
2022-12-16T09:11:33.210Z,7.33
2022-12-16T09:14:18.445Z,2.00
2022-12-16T09:17:03.932Z,5.00
2022-12-16T09:19:49.372Z,4.00
2022-12-16T09:22:34.861Z,2.00
2022-12-16T09:25:34.007Z,2.00
2022-12-16T09:28:19.814Z,4.00
2022-12-16T09:31:04.969Z,4.00
2022-12-16T09:33:50.304Z,2.00
2022-12-16T09:36:36.194Z,4.00
2022-12-16T09:39:21.456Z,4.00
2022-12-16T09:42:44.208Z,2.67
2022-12-16T09:45:38.122Z,5.00
2022-12-16T09:49:05.246Z,5.00
2022-12-16T09:51:57.199Z,5.00
2022-12-16T09:54:48.469Z,6.33
2022-12-16T09:57:34.671Z,7.00
2022-12-16T10:00:24.510Z,7.00
2022-12-16T10:03:10.840Z,10.33
2022-12-16T10:06:26.320Z,7.00
2022-12-16T10:09:39.386Z,8.00
2022-12-16T10:12:43.737Z,10.33
2022-12-16T10:15:57.941Z,8.00
2022-12-16T10:19:04.140Z,7.67
2022-12-16T10:22:07.741Z,8.67
2022-12-16T10:25:09.877Z,11.00
2022-12-16T10:28:06.597Z,9.00
2022-12-16T10:30:55.564Z,12.00
2022-12-16T10:33:46.535Z,12.67
2022-12-16T10:36:39.548Z,14.67
2022-12-16T10:39:56.565Z,16.00
2022-12-16T10:42:47.094Z,13.33
2022-12-16T10:45:49.817Z,16.67
2022-12-16T10:48:53.616Z,16.00
2022-12-16T10:51:45.321Z,15.67
2022-12-16T10:54:39.675Z,15.33
2022-12-16T10:57:28.141Z,9.67
2022-12-16T11:00:28.927Z,12.00
2022-12-16T11:03:14.677Z,15.00
2022-12-16T11:06:00.393Z,15.33
2022-12-16T11:08:50.245Z,18.67
2022-12-16T11:11:47.201Z,18.33
2022-12-16T11:14:33.963Z,19.00
2022-12-16T11:17:40.916Z,16.00
2022-12-16T11:20:29.513Z,19.33
2022-12-16T11:23:39.306Z,21.00
2022-12-16T11:26:36.298Z,23.00
2022-12-16T11:29:25.587Z,20.33
2022-12-16T11:32:35.524Z,16.67
2022-12-16T11:35:23.282Z,15.00
2022-12-16T11:38:11.977Z,14.00
2022-12-16T11:40:58.403Z,14.00
2022-12-16T11:43:46.986Z,24.00
2022-12-16T11:47:07.005Z,17.33
2022-12-16T11:49:52.798Z,14.67
2022-12-16T11:52:40.299Z,11.00
2022-12-16T11:58:57.041Z,8.00
2022-12-16T12:01:50.837Z,14.33
2022-12-16T12:04:36.742Z,15.00
2022-12-16T12:07:45.383Z,16.33
2022-12-16T12:11:03.145Z,12.67
2022-12-16T12:14:07.386Z,15.00
2022-12-16T12:17:19.174Z,18.33
2022-12-16T12:20:36.372Z,18.33
2022-12-16T12:23:25.963Z,8.00
2022-12-16T12:26:28.305Z,7.00
2022-12-16T12:29:32.334Z,15.00
2022-12-16T12:32:39.490Z,19.00
2022-12-16T12:35:38.017Z,15.33
2022-12-16T12:38:34.472Z,11.00
2022-12-16T12:41:27.655Z,18.00
2022-12-16T12:44:24.768Z,18.67
2022-12-16T12:47:18.774Z,16.67
2022-12-16T12:50:16.474Z,17.67
2022-12-16T12:53:20.659Z,18.00
2022-12-16T12:56:28.491Z,22.00
2022-12-16T12:59:21.571Z,21.00
2022-12-16T13:02:11.048Z,19.33
2022-12-16T13:04:57.985Z,19.33
2022-12-16T13:07:43.442Z,21.33
2022-12-16T13:10:53.935Z,18.00
2022-12-16T13:13:47.244Z,17.67
2022-12-16T13:17:05.460Z,19.67
2022-12-16T13:19:51.637Z,23.67
2022-12-16T13:22:58.366Z,18.00
2022-12-16T13:25:52.669Z,21.00
2022-12-16T13:29:01.247Z,23.33
2022-12-16T13:31:49.068Z,22.33
2022-12-16T13:34:34.797Z,13.00
2022-12-16T13:37:29.826Z,17.33
2022-12-16T13:40:35.585Z,18.67
2022-12-16T13:43:23.885Z,17.00
2022-12-16T13:46:19.024Z,16.33
2022-12-16T13:49:04.872Z,19.33
2022-12-16T13:51:56.261Z,19.00
2022-12-16T13:54:57.641Z,16.67
2022-12-16T13:57:45.821Z,17.67
2022-12-16T14:00:41.688Z,17.67
2022-12-16T14:04:04.178Z,15.00
2022-12-16T14:06:51.162Z,16.33
2022-12-16T14:09:50.914Z,14.00
2022-12-16T14:13:15.083Z,18.00
2022-12-16T14:16:27.567Z,16.00
2022-12-16T14:19:51.378Z,13.00
2022-12-16T14:22:57.851Z,19.67
2022-12-16T14:25:43.194Z,21.67
2022-12-16T14:28:58.475Z,26.00
2022-12-16T14:31:52.663Z,27.00
2022-12-16T14:34:54.057Z,19.33
2022-12-16T14:37:55.708Z,20.67
2022-12-16T14:40:49.949Z,23.00
2022-12-16T14:43:45.157Z,26.00
2022-12-16T14:46:51.625Z,26.00
2022-12-16T14:49:39.639Z,22.33
2022-12-16T14:52:45.531Z,25.67
2022-12-16T14:55:35.438Z,27.00
2022-12-16T14:58:23.934Z,27.67
2022-12-16T15:01:15.473Z,20.33
2022-12-16T15:04:06.490Z,16.33
2022-12-16T15:07:04.865Z,17.33
2022-12-16T15:09:56.521Z,21.33
2022-12-16T15:12:46.402Z,17.00
2022-12-16T15:15:49.954Z,18.00
2022-12-16T15:19:03.417Z,16.00
2022-12-16T15:21:52.852Z,17.00
2022-12-16T15:24:43.030Z,19.67
2022-12-16T15:27:40.583Z,26.00
2022-12-16T15:30:53.194Z,23.00
2022-12-16T15:33:42.079Z,21.33
2022-12-16T15:36:38.859Z,21.33
2022-12-16T15:39:43.105Z,19.67
2022-12-16T15:42:40.317Z,20.00
2022-12-16T15:45:57.605Z,19.00
2022-12-16T15:48:47.769Z,19.00
2022-12-16T15:51:45.541Z,17.00
2022-12-16T15:54:43.138Z,14.67
2022-12-16T15:57:49.180Z,21.33
2022-12-16T16:00:41.238Z,23.00
2022-12-16T16:03:36.637Z,23.00
2022-12-16T16:06:22.496Z,27.00
2022-12-16T16:09:11.329Z,24.33
2022-12-16T16:11:56.711Z,25.00
2022-12-16T16:14:42.467Z,25.67
2022-12-16T16:17:39.982Z,25.00
2022-12-16T16:20:26.390Z,25.00
2022-12-16T16:23:12.047Z,16.33
2022-12-16T16:26:03.490Z,19.00
2022-12-16T16:28:49.311Z,17.00
2022-12-16T16:31:35.243Z,20.00
2022-12-16T16:34:20.954Z,23.00
2022-12-16T16:37:13.138Z,19.00
2022-12-16T16:39:58.545Z,19.67
2022-12-16T16:42:44.685Z,11.00
2022-12-16T16:45:30.871Z,16.00
2022-12-16T16:48:39.161Z,18.00
2022-12-16T16:51:24.701Z,13.67
2022-12-16T16:54:10.088Z,10.00
2022-12-16T16:56:57.243Z,17.00
2022-12-16T16:59:43.380Z,16.00
2022-12-16T17:02:41.500Z,11.00
2022-12-16T17:05:28.742Z,17.00
2022-12-16T17:08:14.367Z,10.00
2022-12-16T17:10:59.840Z,17.67
2022-12-16T17:13:45.223Z,26.67
2022-12-16T17:16:33.384Z,25.00
2022-12-16T17:19:21.837Z,22.67
2022-12-16T17:22:07.564Z,22.67
2022-12-16T17:24:54.595Z,16.67
2022-12-16T17:27:43.937Z,13.33
2022-12-16T17:30:38.808Z,11.00
2022-12-16T17:33:27.563Z,18.00
2022-12-16T17:36:13.284Z,18.33
2022-12-16T17:39:01.303Z,20.00
2022-12-16T17:41:49.756Z,27.67
2022-12-16T17:44:36.306Z,27.00
2022-12-16T17:47:23.353Z,20.00
2022-12-16T17:50:08.656Z,27.33
2022-12-16T17:52:54.515Z,28.33
2022-12-16T17:55:40.103Z,23.67
2022-12-16T17:58:25.510Z,19.33
2022-12-16T18:01:11.335Z,20.67
2022-12-16T18:03:56.902Z,20.00
2022-12-16T18:06:42.604Z,24.67
2022-12-16T18:09:28.365Z,27.67
2022-12-16T18:12:13.927Z,22.33
2022-12-16T18:14:59.239Z,22.00
2022-12-16T18:17:44.811Z,18.67
2022-12-16T18:20:30.363Z,25.00
2022-12-16T18:23:15.872Z,11.67
2022-12-16T18:26:01.449Z,25.33
2022-12-16T18:28:47.036Z,19.33
2022-12-16T18:31:32.315Z,19.67
2022-12-16T18:34:17.982Z,24.00
2022-12-16T18:37:03.679Z,21.33
2022-12-16T18:39:49.278Z,20.00
2022-12-16T18:42:35.038Z,23.33
2022-12-16T18:45:20.703Z,22.00
2022-12-16T18:48:06.115Z,26.00
2022-12-16T18:50:51.631Z,11.67
2022-12-16T18:53:37.620Z,20.00
2022-12-16T18:56:26.328Z,17.00
2022-12-16T18:59:12.240Z,14.00
2022-12-16T19:01:58.715Z,18.33
2022-12-16T19:04:44.510Z,19.00
2022-12-16T19:07:33.575Z,26.00
2022-12-16T19:10:19.437Z,22.33
2022-12-16T19:13:04.734Z,23.00
2022-12-16T19:15:50.260Z,20.33
2022-12-16T19:18:35.880Z,19.00
2022-12-16T19:21:21.661Z,22.00
2022-12-16T19:24:07.720Z,25.00
2022-12-16T19:26:53.342Z,29.25
2022-12-16T19:29:53.287Z,23.33
2022-12-16T19:32:39.136Z,22.00
2022-12-16T19:35:24.758Z,23.00
2022-12-16T19:38:11.878Z,15.33
2022-12-16T19:40:57.530Z,23.33
2022-12-16T19:43:43.046Z,19.00
2022-12-16T19:46:28.515Z,20.00
2022-12-16T19:49:14.293Z,27.00
2022-12-16T19:52:00.089Z,14.33
2022-12-16T19:54:45.578Z,23.00
2022-12-16T19:57:31.075Z,16.00
2022-12-16T20:00:16.721Z,17.33
2022-12-16T20:03:02.274Z,17.33
2022-12-16T20:05:47.756Z,13.00
2022-12-16T20:08:33.982Z,14.67
2022-12-16T20:11:27.504Z,15.33
2022-12-16T20:14:15.110Z,15.00
2022-12-16T20:17:01.044Z,14.33
2022-12-16T20:19:47.396Z,19.00
2022-12-16T20:22:32.847Z,17.33
2022-12-16T20:25:18.324Z,25.00
2022-12-16T20:28:03.861Z,0.00
2022-12-16T20:30:49.151Z,19.33
2022-12-16T20:33:35.405Z,15.67
2022-12-16T20:36:23.117Z,15.33
2022-12-16T20:39:08.434Z,19.00
2022-12-16T20:41:56.227Z,14.67
2022-12-16T20:44:42.081Z,16.00
2022-12-16T20:47:27.353Z,17.00
2022-12-16T20:50:13.034Z,17.67
2022-12-16T20:52:58.357Z,14.67
2022-12-16T20:55:43.967Z,0.00
2022-12-16T20:58:29.376Z,17.00
2022-12-16T21:01:15.337Z,13.33
2022-12-16T21:04:00.943Z,10.67
2022-12-16T21:06:46.306Z,9.00
2022-12-16T21:09:31.879Z,13.00
2022-12-16T21:12:17.479Z,10.00
2022-12-16T21:15:03.065Z,20.67
2022-12-16T21:17:48.618Z,19.67
2022-12-16T21:20:34.025Z,18.33
2022-12-16T21:23:20.950Z,21.33
2022-12-16T21:26:06.696Z,22.00
2022-12-16T21:28:52.389Z,22.00
2022-12-16T21:31:41.759Z,14.33
2022-12-16T21:34:27.385Z,4.00
2022-12-16T21:37:12.715Z,18.00
2022-12-16T21:39:58.013Z,17.67
2022-12-16T21:42:44.289Z,16.00
2022-12-16T21:45:30.713Z,22.00
2022-12-16T21:48:16.333Z,25.00
2022-12-16T21:51:01.615Z,21.67
2022-12-16T21:53:47.811Z,16.00
2022-12-16T21:56:33.824Z,21.00
2022-12-16T21:59:19.437Z,29.25
2022-12-16T22:02:04.994Z,18.33
2022-12-16T22:04:50.477Z,21.67
2022-12-16T22:07:36.031Z,27.25
2022-12-16T22:10:23.149Z,24.00
2022-12-16T22:13:08.644Z,18.00
2022-12-16T22:15:58.085Z,16.67
2022-12-16T22:18:46.411Z,24.00
2022-12-16T22:21:32.171Z,26.00
2022-12-16T22:24:18.804Z,29.25
2022-12-16T22:27:04.312Z,27.00
2022-12-16T22:29:50.634Z,22.67
2022-12-16T22:32:36.174Z,26.00
2022-12-16T22:35:21.752Z,22.00
2022-12-16T22:38:07.068Z,15.33
2022-12-16T22:40:52.843Z,18.33
2022-12-16T22:43:49.620Z,21.00
2022-12-16T22:46:35.822Z,18.50
2022-12-16T22:49:25.674Z,16.00
2022-12-16T22:52:10.955Z,22.00
2022-12-16T22:54:56.687Z,20.33
2022-12-16T22:57:41.972Z,16.00
2022-12-16T23:00:28.039Z,18.00
2022-12-16T23:03:36.068Z,19.00
2022-12-16T23:06:21.832Z,16.33
2022-12-16T23:09:07.254Z,16.00
2022-12-16T23:11:56.706Z,19.00
2022-12-16T23:14:43.342Z,15.00
2022-12-16T23:17:30.210Z,14.33
2022-12-16T23:20:15.456Z,16.75
2022-12-16T23:23:01.089Z,19.00
2022-12-16T23:25:46.570Z,14.33
2022-12-16T23:28:31.964Z,15.67
2022-12-16T23:31:17.835Z,21.00
2022-12-16T23:34:03.231Z,20.67
2022-12-16T23:36:49.100Z,21.00
2022-12-16T23:39:34.390Z,16.67
2022-12-16T23:42:20.038Z,16.33
2022-12-16T23:45:05.566Z,18.00
2022-12-16T23:47:51.090Z,12.67
2022-12-16T23:50:37.567Z,15.00
2022-12-16T23:53:24.453Z,19.00
2022-12-16T23:56:09.901Z,18.00
2022-12-16T23:58:56.238Z,16.00
